createdAt,value
2023-11-30T00:02:53.099Z,1.07
2023-11-30T00:06:58.074Z,1.09
2023-11-30T00:11:02.783Z,1.12
2023-11-30T00:15:11.588Z,1.16
2023-11-30T00:19:16.330Z,1.17
2023-11-30T00:23:21.080Z,1.19
2023-11-30T00:27:25.798Z,1.20
2023-11-30T00:31:33.234Z,1.21
2023-11-30T00:35:37.973Z,1.23
2023-11-30T00:39:42.847Z,1.23
2023-11-30T00:43:47.602Z,1.23
2023-11-30T00:47:54.965Z,1.25
2023-11-30T00:51:59.735Z,1.22
2023-11-30T00:56:04.856Z,1.24
2023-11-30T01:00:11.941Z,1.28
2023-11-30T01:04:19.334Z,1.30
2023-11-30T01:08:24.114Z,1.26
2023-11-30T01:12:29.378Z,1.28
2023-11-30T01:16:34.654Z,1.33
2023-11-30T01:20:42.002Z,1.40
2023-11-30T01:24:46.727Z,1.41
2023-11-30T01:28:51.503Z,1.38
2023-11-30T01:32:56.300Z,1.36
2023-11-30T01:37:03.696Z,1.35
2023-11-30T01:41:11.773Z,1.38
2023-11-30T01:45:16.561Z,1.34
2023-11-30T01:49:21.433Z,1.27
2023-11-30T01:53:29.022Z,1.22
2023-11-30T01:57:34.285Z,1.17
2023-11-30T02:01:39.587Z,1.16
2023-11-30T02:05:44.720Z,1.20
2023-11-30T02:09:52.299Z,1.23
2023-11-30T02:13:58.048Z,1.24
2023-11-30T02:18:02.851Z,1.25
2023-11-30T02:22:10.477Z,1.32
2023-11-30T02:26:15.326Z,1.36
2023-11-30T02:30:20.158Z,1.39
2023-11-30T02:34:25.055Z,1.38
2023-11-30T02:38:33.801Z,1.34
2023-11-30T02:42:38.552Z,1.34
2023-11-30T02:46:43.342Z,1.35
2023-11-30T02:50:48.104Z,1.34
2023-11-30T02:54:55.537Z,1.34
2023-11-30T02:59:00.296Z,1.32
2023-11-30T03:03:05.050Z,1.28
2023-11-30T03:07:09.765Z,1.23
2023-11-30T03:11:17.126Z,1.16
2023-11-30T03:15:23.534Z,1.12
2023-11-30T03:19:28.383Z,1.16
2023-11-30T03:23:33.122Z,1.17
2023-11-30T03:27:40.438Z,1.10
2023-11-30T03:31:45.298Z,1.14
2023-11-30T03:35:51.976Z,1.17
2023-11-30T03:39:56.964Z,1.18
2023-11-30T03:44:04.342Z,1.17
2023-11-30T03:48:09.493Z,1.13
2023-11-30T03:52:14.242Z,1.21
2023-11-30T03:56:19.091Z,1.25
2023-11-30T04:00:26.855Z,1.22
2023-11-30T04:04:32.006Z,1.24
2023-11-30T04:08:38.080Z,1.24
2023-11-30T04:12:42.987Z,1.22
2023-11-30T04:16:50.337Z,1.25
2023-11-30T04:20:55.197Z,1.27
2023-11-30T04:24:59.999Z,1.29
2023-11-30T04:29:04.752Z,1.29
2023-11-30T04:33:12.662Z,1.26
2023-11-30T04:37:17.945Z,1.20
2023-11-30T04:41:24.221Z,1.19
2023-11-30T04:45:28.968Z,1.14
2023-11-30T04:49:36.486Z,1.08
2023-11-30T04:53:41.273Z,1.04
2023-11-30T04:57:46.009Z,1.03
2023-11-30T05:01:50.871Z,1.05
2023-11-30T05:05:58.383Z,1.08
2023-11-30T05:10:03.200Z,1.03
2023-11-30T05:14:07.991Z,1.06
2023-11-30T05:18:12.917Z,1.13
2023-11-30T05:22:20.372Z,1.14
2023-11-30T05:26:25.125Z,1.18
2023-11-30T05:30:30.365Z,1.16
2023-11-30T05:34:36.841Z,1.17
2023-11-30T05:38:44.213Z,1.22
2023-11-30T05:42:49.240Z,1.25
2023-11-30T05:46:54.404Z,1.21
2023-11-30T05:50:59.164Z,1.19
2023-11-30T05:55:07.603Z,1.22
2023-11-30T05:59:13.463Z,1.25
2023-11-30T06:03:18.487Z,1.26
2023-11-30T06:07:24.732Z,1.26
2023-11-30T06:11:32.070Z,1.31
2023-11-30T06:15:36.944Z,1.36
2023-11-30T06:19:42.041Z,1.42
2023-11-30T06:23:46.776Z,1.45
2023-11-30T06:27:54.081Z,1.48
2023-11-30T06:32:03.148Z,1.43
2023-11-30T06:36:09.168Z,1.47
2023-11-30T06:40:14.706Z,1.41
2023-11-30T06:44:22.185Z,1.30
2023-11-30T06:48:27.971Z,1.24
2023-11-30T06:52:32.973Z,1.19
2023-11-30T06:56:37.878Z,1.14
2023-11-30T07:00:45.944Z,1.11
2023-11-30T07:04:50.874Z,1.05
2023-11-30T07:08:55.697Z,1.08
2023-11-30T07:13:00.474Z,1.03
2023-11-30T07:17:08.208Z,1.04
2023-11-30T07:21:17.024Z,1.04
2023-11-30T07:25:21.831Z,0.98
2023-11-30T07:29:27.148Z,1.01
2023-11-30T07:33:34.907Z,1.03
2023-11-30T07:37:39.704Z,1.06
2023-11-30T07:41:44.426Z,1.07
2023-11-30T07:45:50.128Z,1.08
2023-11-30T07:49:58.083Z,1.03
2023-11-30T07:54:02.838Z,0.99
2023-11-30T07:58:07.797Z,0.98
2023-11-30T08:02:13.280Z,0.92
2023-11-30T08:06:20.622Z,0.98
2023-11-30T08:10:27.098Z,1.01
2023-11-30T08:14:32.156Z,1.08
2023-11-30T08:18:36.912Z,1.13
2023-11-30T08:22:44.331Z,1.15
2023-11-30T08:26:49.076Z,1.15
2023-11-30T08:30:53.903Z,1.15
2023-11-30T08:34:58.753Z,1.17
2023-11-30T08:39:07.362Z,1.12
2023-11-30T08:43:13.365Z,1.03
2023-11-30T08:47:18.090Z,0.95
2023-11-30T08:51:22.852Z,0.93
2023-11-30T08:55:30.290Z,0.94
2023-11-30T08:59:34.974Z,1.06
2023-11-30T09:03:40.894Z,1.01
2023-11-30T09:07:46.602Z,0.91
2023-11-30T09:11:53.987Z,0.91
2023-11-30T09:15:58.747Z,0.91
2023-11-30T09:20:03.830Z,0.92
2023-11-30T09:24:09.614Z,0.92
2023-11-30T09:28:17.289Z,0.87
2023-11-30T09:32:23.713Z,0.82
2023-11-30T09:36:28.453Z,0.82
2023-11-30T09:40:35.159Z,0.86
2023-11-30T09:44:42.538Z,0.96
2023-11-30T09:48:47.360Z,1.04
2023-11-30T09:52:52.093Z,1.11
2023-11-30T09:56:56.858Z,1.21
2023-11-30T10:01:05.067Z,1.38
2023-11-30T10:05:11.246Z,1.47
2023-11-30T10:09:16.991Z,1.53
2023-11-30T10:13:21.754Z,1.61
2023-11-30T10:17:30.357Z,1.64
2023-11-30T10:21:35.348Z,1.72
2023-11-30T10:25:41.026Z,1.79
2023-11-30T10:29:47.733Z,1.80
2023-11-30T10:33:59.914Z,1.82
2023-11-30T10:38:07.679Z,1.85
2023-11-30T10:42:15.687Z,1.87
2023-11-30T10:46:22.115Z,1.86
2023-11-30T10:50:33.065Z,1.86
2023-11-30T10:54:43.023Z,1.88
2023-11-30T10:58:48.389Z,1.89
2023-11-30T11:02:53.207Z,1.86
2023-11-30T11:07:07.388Z,1.83
2023-11-30T11:11:13.049Z,1.74
2023-11-30T11:15:17.885Z,1.79
2023-11-30T11:19:25.834Z,1.84
2023-11-30T11:23:42.067Z,1.86
2023-11-30T11:27:46.951Z,1.86
2023-11-30T11:31:51.968Z,1.89
2023-11-30T11:35:57.212Z,1.92
2023-11-30T11:40:04.965Z,1.92
2023-11-30T11:44:10.543Z,1.95
2023-11-30T11:48:15.924Z,2.01
2023-11-30T11:52:24.187Z,2.05
2023-11-30T11:56:31.580Z,2.10
2023-11-30T12:00:36.703Z,2.15
2023-11-30T12:04:41.545Z,2.16
2023-11-30T12:08:46.281Z,2.18
2023-11-30T12:12:54.789Z,2.18
2023-11-30T12:16:59.564Z,2.12
2023-11-30T12:21:04.415Z,2.11
2023-11-30T12:25:09.634Z,2.09
2023-11-30T12:29:17.003Z,2.16
2023-11-30T12:33:23.023Z,2.18
2023-11-30T12:37:27.849Z,2.27
2023-11-30T12:41:32.567Z,2.30
2023-11-30T12:45:40.376Z,2.28
2023-11-30T12:49:45.780Z,2.34
2023-11-30T12:53:52.399Z,2.38
2023-11-30T12:57:57.290Z,2.39
2023-11-30T13:02:04.807Z,2.39
2023-11-30T13:06:11.374Z,2.41
2023-11-30T13:10:17.087Z,2.44
2023-11-30T13:14:21.993Z,2.43
2023-11-30T13:18:31.574Z,2.49
2023-11-30T13:22:36.470Z,2.52
2023-11-30T13:26:41.857Z,2.51
2023-11-30T13:30:46.733Z,2.47
2023-11-30T13:34:56.020Z,2.40
2023-11-30T13:39:01.736Z,2.42
2023-11-30T13:43:06.612Z,2.42
2023-11-30T13:47:11.647Z,2.40
2023-11-30T13:51:19.050Z,2.40
2023-11-30T13:55:23.837Z,2.32
2023-11-30T13:59:28.606Z,2.35
2023-11-30T14:03:34.287Z,2.40
2023-11-30T14:07:41.895Z,2.39
2023-11-30T14:11:46.652Z,2.36
2023-11-30T14:15:51.479Z,2.36
2023-11-30T14:19:56.292Z,2.38
2023-11-30T14:24:06.221Z,2.41
2023-11-30T14:28:12.887Z,2.43
2023-11-30T14:32:20.100Z,2.42
2023-11-30T14:36:25.145Z,2.35
2023-11-30T14:40:32.504Z,2.30
2023-11-30T14:44:37.242Z,2.33
2023-11-30T14:48:42.005Z,2.31
2023-11-30T14:52:47.910Z,2.30
2023-11-30T14:56:55.460Z,2.26
2023-11-30T15:01:00.332Z,2.28
2023-11-30T15:05:07.452Z,2.23
2023-11-30T15:09:12.690Z,2.13
2023-11-30T15:13:21.623Z,2.11
2023-11-30T15:17:26.413Z,2.04
2023-11-30T15:21:31.996Z,2.02
2023-11-30T15:25:36.781Z,1.98
2023-11-30T15:29:45.311Z,2.00
2023-11-30T15:33:50.288Z,2.00
2023-11-30T15:37:58.119Z,1.96
2023-11-30T15:42:02.855Z,1.94
2023-11-30T15:46:11.940Z,1.91
2023-11-30T15:50:16.810Z,1.88
2023-11-30T15:54:21.816Z,1.86
2023-11-30T15:58:27.890Z,1.81
2023-11-30T16:02:35.472Z,1.77
2023-11-30T16:06:40.368Z,1.77
2023-11-30T16:10:45.133Z,1.63
2023-11-30T16:14:49.908Z,1.60
2023-11-30T16:18:57.319Z,1.49
2023-11-30T16:23:04.410Z,1.41
2023-11-30T16:27:11.610Z,1.39
2023-11-30T16:31:16.774Z,1.40
2023-11-30T16:35:24.266Z,1.38
2023-11-30T16:39:29.133Z,1.37
2023-11-30T16:43:37.067Z,1.34
2023-11-30T16:47:42.154Z,1.30
2023-11-30T16:51:55.334Z,1.30
2023-11-30T16:56:05.122Z,1.36
2023-11-30T17:00:11.206Z,1.41
2023-11-30T17:04:16.087Z,1.40
2023-11-30T17:08:23.430Z,1.44
2023-11-30T17:12:28.324Z,1.39
2023-11-30T17:16:33.091Z,1.41
2023-11-30T17:20:37.850Z,1.43
2023-11-30T17:24:45.450Z,1.49
2023-11-30T17:28:58.540Z,1.45
2023-11-30T17:33:03.637Z,1.43
2023-11-30T17:37:14.259Z,1.44
2023-11-30T17:41:21.954Z,1.47
2023-11-30T17:45:26.738Z,1.53
2023-11-30T17:49:31.476Z,1.57
2023-11-30T17:53:36.251Z,1.56
2023-11-30T17:57:44.357Z,1.61
2023-11-30T18:01:49.159Z,1.66
2023-11-30T18:05:54.095Z,1.60
2023-11-30T18:09:58.942Z,1.63
2023-11-30T18:14:06.354Z,1.58
2023-11-30T18:18:11.205Z,1.58
2023-11-30T18:22:16.020Z,1.53
2023-11-30T18:26:21.409Z,1.48
2023-11-30T18:30:28.761Z,1.46
2023-11-30T18:34:33.529Z,1.47
2023-11-30T18:38:44.096Z,1.43
2023-11-30T18:42:55.377Z,1.40
2023-11-30T18:47:03.101Z,1.44
2023-11-30T18:51:08.602Z,1.48
2023-11-30T18:55:13.688Z,1.52
2023-11-30T18:59:18.574Z,1.54
2023-11-30T19:03:26.211Z,1.53
2023-11-30T19:07:31.567Z,1.53
2023-11-30T19:11:36.356Z,1.54
2023-11-30T19:15:43.014Z,1.46
2023-11-30T19:19:50.454Z,1.43
2023-11-30T19:23:56.166Z,1.35
2023-11-30T19:28:06.638Z,1.33
2023-11-30T19:32:11.421Z,1.27
2023-11-30T19:36:18.928Z,1.18
2023-11-30T19:40:23.782Z,1.16
2023-11-30T19:44:28.533Z,1.14
2023-11-30T19:48:33.398Z,1.16
2023-11-30T19:52:41.274Z,1.22
2023-11-30T19:56:46.451Z,1.25
2023-11-30T20:00:52.543Z,1.28
2023-11-30T20:04:57.323Z,1.31
2023-11-30T20:09:05.222Z,1.34
2023-11-30T20:13:09.988Z,1.37
2023-11-30T20:17:15.365Z,1.41
2023-11-30T20:21:22.601Z,1.38
2023-11-30T20:25:30.300Z,1.34
2023-11-30T20:29:35.008Z,1.32
2023-11-30T20:33:39.764Z,1.34
2023-11-30T20:37:44.493Z,1.36
2023-11-30T20:41:51.874Z,1.37
2023-11-30T20:45:57.436Z,1.36
2023-11-30T20:50:02.806Z,1.35
2023-11-30T20:54:10.093Z,1.42
2023-11-30T20:58:17.725Z,1.36
2023-11-30T21:02:24.214Z,1.40
2023-11-30T21:06:29.176Z,1.40
2023-11-30T21:10:33.974Z,1.36
2023-11-30T21:14:41.331Z,1.44
2023-11-30T21:18:47.638Z,1.46
2023-11-30T21:22:53.878Z,1.51
2023-11-30T21:26:58.616Z,1.56
2023-11-30T21:31:06.128Z,1.60
2023-11-30T21:35:11.769Z,1.60
2023-11-30T21:39:16.712Z,1.63
2023-11-30T21:43:21.515Z,1.63
2023-11-30T21:47:29.656Z,1.63
2023-11-30T21:51:37.028Z,1.68
2023-11-30T21:55:42.698Z,1.69
2023-11-30T21:59:47.405Z,1.65
2023-11-30T22:03:54.970Z,1.70
2023-11-30T22:08:00.308Z,1.71
2023-11-30T22:12:06.709Z,1.70
2023-11-30T22:16:14.055Z,1.71
2023-11-30T22:20:22.583Z,1.66
2023-11-30T22:24:27.424Z,1.69
2023-11-30T22:28:32.170Z,1.70
2023-11-30T22:32:37.517Z,1.72
2023-11-30T22:36:45.796Z,1.70
2023-11-30T22:40:50.635Z,1.67
2023-11-30T22:44:55.523Z,1.69
2023-11-30T22:49:00.307Z,1.66
2023-11-30T22:53:07.823Z,1.61
2023-11-30T22:57:12.813Z,1.64
2023-11-30T23:01:18.369Z,1.62
2023-11-30T23:05:23.533Z,1.52
2023-11-30T23:09:31.090Z,1.46
2023-11-30T23:13:35.905Z,1.37
2023-11-30T23:17:40.732Z,1.42
2023-11-30T23:21:45.655Z,1.38
2023-11-30T23:25:53.384Z,1.46
2023-11-30T23:29:58.197Z,1.51
2023-11-30T23:34:03.107Z,1.51
2023-11-30T23:38:07.945Z,1.55
2023-11-30T23:42:15.686Z,1.57
2023-11-30T23:46:20.484Z,1.62
2023-11-30T23:50:26.069Z,1.63
2023-11-30T23:54:32.120Z,1.64
2023-11-30T23:58:39.432Z,1.67
